Terminal Aerodrome Forecast
Issued by NWS Wakefield, VA

Home | Current Version | Previous Version | Text Only | Print | Product List | Glossary On
Versions: 1 2 3 4 5 6 7 8 9 10 11 12 13 14 15 16 17 18 19 20 21
380
FTUS41 KAKQ 271743
TAFSBY
TAF
KSBY 271743Z 2718/2818 28007KT P6SM SCT070
     FM280000 VRB03KT P6SM BKN070
     FM280800 VRB03KT 6SM BR SCT070=

USA.gov is the U.S. government's official web portal to all federal, state and local government web resources and services.